Time;durP1;ratioP1;P1;durP2;ratioP2;P2;SDS_P1;SDS_P2;PMS_P1;PMS_P2;Temp;Humidity;BMP_temperature;BMP_pressure;BME280_temperature;BME280_humidity;BME280_pressure;Samples;Min_cycle;Max_cycle;Signal;HPM_P1;HPM_P2
2020/12/27 00:02:05;;;;;;;18.77;8.00;;;-2.70;99.90;;;;;;5034679;28;20056;-77
2020/12/27 00:04:30;;;;;;;16.02;8.07;;;-2.70;99.90;;;;;;5035053;28;20060;-78
2020/12/27 00:06:56;;;;;;;12.55;8.15;;;-2.70;99.90;;;;;;5035605;28;20026;-76
2020/12/27 00:09:22;;;;;;;15.43;8.40;;;-2.80;99.90;;;;;;5036928;28;20025;-76
2020/12/27 00:11:51;;;;;;;19.05;8.77;;;-2.70;99.90;;;;;;5036323;28;20378;-76
2020/12/27 00:14:17;;;;;;;21.60;9.25;;;-2.80;99.90;;;;;;5033564;28;20040;-76
2020/12/27 00:16:43;;;;;;;19.20;9.68;;;-2.80;99.90;;;;;;5041707;28;20029;-76
2020/12/27 00:19:08;;;;;;;15.82;8.95;;;-2.80;99.90;;;;;;5042462;28;20089;-77
2020/12/27 00:21:34;;;;;;;19.83;9.15;;;-2.90;99.90;;;;;;5040341;28;20022;-77
2020/12/27 00:23:59;;;;;;;17.90;9.40;;;-2.90;99.90;;;;;;5040552;28;20026;-77
2020/12/27 00:26:25;;;;;;;15.23;8.55;;;-2.90;99.90;;;;;;5043479;28;20110;-76
2020/12/27 00:28:51;;;;;;;17.35;8.95;;;-3.00;99.90;;;;;;5045093;28;20033;-77
2020/12/27 00:31:17;;;;;;;15.23;8.57;;;-3.00;99.90;;;;;;5050387;28;20029;-78
2020/12/27 00:33:43;;;;;;;17.02;8.65;;;-3.00;99.90;;;;;;5050156;28;20041;-77
2020/12/27 00:36:09;;;;;;;15.43;8.45;;;-3.00;99.90;;;;;;5051659;28;20016;-76
2020/12/27 00:38:34;;;;;;;17.33;9.65;;;-3.00;99.90;;;;;;5046879;28;20456;-77
2020/12/27 00:41:00;;;;;;;17.33;8.52;;;-3.00;99.90;;;;;;5040656;28;20026;-77
2020/12/27 00:43:26;;;;;;;18.15;9.25;;;-3.00;99.90;;;;;;5040665;28;20473;-77
2020/12/27 00:45:52;;;;;;;14.18;8.43;;;-3.00;99.90;;;;;;5038474;28;20369;-77
2020/12/27 00:48:18;;;;;;;15.65;8.23;;;-3.10;99.90;;;;;;5041549;28;20030;-77
2020/12/27 00:50:47;;;;;;;13.68;8.35;;;-3.00;99.90;;;;;;5042114;28;20029;-76
2020/12/27 00:53:13;;;;;;;19.02;9.15;;;-3.10;99.90;;;;;;5048982;28;20033;-77
2020/12/27 00:55:39;;;;;;;13.63;8.23;;;-3.10;99.90;;;;;;5049031;28;20049;-75
2020/12/27 00:58:05;;;;;;;20.10;9.15;;;-3.10;99.90;;;;;;5057587;28;20021;-76
2020/12/27 01:00:30;;;;;;;18.55;8.27;;;-3.10;99.90;;;;;;5051091;28;20048;-76
2020/12/27 01:02:56;;;;;;;18.27;8.55;;;-3.10;99.90;;;;;;5052357;28;20435;-77
2020/12/27 01:05:22;;;;;;;17.00;8.35;;;-3.20;99.90;;;;;;5050348;28;20029;-76
2020/12/27 01:07:47;;;;;;;22.52;8.75;;;-3.20;99.90;;;;;;5055324;28;20030;-76
2020/12/27 01:10:13;;;;;;;19.95;9.60;;;-3.10;99.90;;;;;;5052614;28;20013;-77
2020/12/27 01:12:39;;;;;;;17.10;9.02;;;-3.10;99.90;;;;;;5042131;28;20508;-75
2020/12/27 01:15:04;;;;;;;18.98;8.68;;;-3.00;99.90;;;;;;5042281;28;20478;-76
2020/12/27 01:17:30;;;;;;;20.02;9.02;;;-3.10;99.90;;;;;;5043726;28;20393;-77
2020/12/27 01:19:56;;;;;;;17.08;7.97;;;-3.10;99.90;;;;;;5047789;28;20026;-75
2020/12/27 01:22:21;;;;;;;22.52;9.13;;;-3.10;99.90;;;;;;5046960;28;20085;-77
2020/12/27 01:24:47;;;;;;;17.80;8.85;;;-3.20;99.90;;;;;;5044934;28;20044;-79
2020/12/27 01:27:12;;;;;;;21.17;9.50;;;-3.20;99.90;;;;;;5037690;28;20021;-78
2020/12/27 01:29:38;;;;;;;16.30;9.05;;;-3.20;99.90;;;;;;5035991;28;20033;-76
2020/12/27 01:32:04;;;;;;;21.25;10.57;;;-3.20;99.90;;;;;;5045644;28;20022;-77
2020/12/27 01:34:30;;;;;;;19.83;9.80;;;-3.20;99.90;;;;;;5040751;28;20033;-76
2020/12/27 01:36:56;;;;;;;20.13;10.23;;;-3.20;99.90;;;;;;5034276;28;20030;-75
2020/12/27 01:39:21;;;;;;;16.63;9.18;;;-3.20;99.90;;;;;;5031249;28;20045;-78
2020/12/27 01:41:47;;;;;;;22.75;10.43;;;-3.30;99.90;;;;;;5030444;28;20026;-75
2020/12/27 01:44:14;;;;;;;17.92;10.00;;;-3.30;99.90;;;;;;5030931;28;20033;-78
2020/12/27 01:46:42;;;;;;;19.38;10.70;;;-3.30;99.90;;;;;;5018596;28;20044;-78
2020/12/27 01:49:10;;;;;;;18.98;9.65;;;-3.20;99.90;;;;;;5019341;28;20018;-76
2020/12/27 01:51:36;;;;;;;24.88;11.45;;;-3.30;99.90;;;;;;5028749;28;20018;-77
2020/12/27 01:54:02;;;;;;;21.10;11.43;;;-3.30;99.90;;;;;;5036517;28;20037;-78
2020/12/27 01:56:49;;;;;;;16.90;10.82;;;-3.30;99.90;;;;;;5038009;28;20025;-78
2020/12/27 01:59:22;;;;;;;19.75;10.70;;;-3.30;99.90;;;;;;5049892;28;20045;-76
2020/12/27 02:01:48;;;;;;;19.08;10.55;;;-3.30;99.90;;;;;;5038640;28;20029;-77
2020/12/27 02:04:14;;;;;;;19.67;10.82;;;-3.40;99.90;;;;;;5036048;28;20022;-77
2020/12/27 02:06:41;;;;;;;23.33;11.85;;;-3.30;99.90;;;;;;5037859;28;20028;-76
2020/12/27 02:09:08;;;;;;;18.60;11.35;;;-3.20;99.90;;;;;;5036925;28;20102;-77
2020/12/27 02:11:33;;;;;;;23.02;12.52;;;-3.30;99.90;;;;;;5034856;28;20029;-77
2020/12/27 02:13:59;;;;;;;23.30;11.50;;;-3.40;99.90;;;;;;5040312;28;20032;-76
2020/12/27 02:16:28;;;;;;;20.08;10.95;;;-3.30;99.90;;;;;;5047340;28;20111;-76
2020/12/27 02:18:56;;;;;;;19.23;11.52;;;-3.30;99.90;;;;;;5047432;28;20044;-76
2020/12/27 02:21:23;;;;;;;24.83;11.00;;;-3.30;99.90;;;;;;5037684;28;20388;-77
2020/12/27 02:23:49;;;;;;;16.27;9.07;;;-3.20;99.90;;;;;;5036745;28;20022;-77
2020/12/27 02:26:14;;;;;;;25.15;10.45;;;-3.30;99.90;;;;;;5043204;28;20037;-78
2020/12/27 02:28:40;;;;;;;24.42;10.50;;;-3.30;99.90;;;;;;5046661;28;20022;-77
2020/12/27 02:31:07;;;;;;;19.58;10.57;;;-3.30;99.90;;;;;;5043306;28;20107;-78
2020/12/27 02:33:32;;;;;;;18.10;11.05;;;-3.30;99.90;;;;;;5034076;28;20025;-77
2020/12/27 02:35:58;;;;;;;19.42;11.48;;;-3.30;99.90;;;;;;5038272;28;20037;-76
2020/12/27 02:38:24;;;;;;;17.10;10.52;;;-3.30;99.90;;;;;;5040383;28;20081;-78
2020/12/27 02:40:50;;;;;;;21.80;10.55;;;-3.30;99.90;;;;;;5035209;28;20359;-76
2020/12/27 02:43:17;;;;;;;20.45;10.60;;;-3.30;99.90;;;;;;5034922;28;20021;-77
2020/12/27 02:45:43;;;;;;;18.83;10.80;;;-3.40;99.90;;;;;;5035406;28;20025;-77
2020/12/27 02:48:09;;;;;;;20.52;11.07;;;-3.30;99.90;;;;;;5034348;28;20021;-77
2020/12/27 02:50:35;;;;;;;24.13;11.38;;;-3.20;99.90;;;;;;5035101;28;20025;-78
2020/12/27 02:53:02;;;;;;;18.05;10.02;;;-3.20;99.90;;;;;;5035837;28;20104;-77
2020/12/27 02:55:28;;;;;;;23.63;11.18;;;-3.30;99.90;;;;;;5037809;28;20057;-77
2020/12/27 02:57:54;;;;;;;19.60;11.32;;;-3.20;99.90;;;;;;5046806;28;20528;-76
2020/12/27 03:00:20;;;;;;;20.38;12.82;;;-3.20;99.90;;;;;;5046059;28;20025;-77
2020/12/27 03:02:45;;;;;;;20.35;11.50;;;-3.20;99.90;;;;;;5043901;28;20022;-78
2020/12/27 03:05:11;;;;;;;24.88;11.18;;;-3.20;99.90;;;;;;5036200;28;20082;-76
2020/12/27 03:07:37;;;;;;;21.35;12.23;;;-3.20;99.90;;;;;;5033155;28;20029;-77
2020/12/27 03:10:04;;;;;;;21.17;12.05;;;-3.20;99.90;;;;;;5036337;28;20029;-78
2020/12/27 03:12:29;;;;;;;22.55;11.38;;;-3.20;99.90;;;;;;5034176;28;20044;-78
2020/12/27 03:14:55;;;;;;;19.63;11.23;;;-3.20;99.90;;;;;;5034597;28;20104;-79
2020/12/27 03:17:21;;;;;;;21.48;12.07;;;-3.20;99.90;;;;;;5033436;28;20032;-77
2020/12/27 03:19:46;;;;;;;19.42;11.18;;;-3.20;99.90;;;;;;5033252;28;20030;-78
2020/12/27 03:22:12;;;;;;;24.80;12.07;;;-3.20;99.90;;;;;;5033762;28;20112;-76
2020/12/27 03:24:38;;;;;;;24.20;11.18;;;-3.10;99.90;;;;;;5033900;28;20108;-75
2020/12/27 03:27:03;;;;;;;18.58;11.02;;;-3.20;99.90;;;;;;5055532;28;20017;-77
2020/12/27 03:29:29;;;;;;;23.55;11.60;;;-3.20;99.90;;;;;;5054666;28;20033;-77
2020/12/27 03:31:55;;;;;;;21.30;10.40;;;-3.30;99.90;;;;;;5037950;28;20030;-77
2020/12/27 03:34:20;;;;;;;19.10;10.32;;;-3.30;99.90;;;;;;5034584;28;20028;-77
2020/12/27 03:36:49;;;;;;;20.80;10.82;;;-3.20;99.90;;;;;;5035592;28;20017;-77
2020/12/27 03:39:14;;;;;;;20.02;10.75;;;-3.20;99.90;;;;;;5034936;28;20030;-76
2020/12/27 03:41:40;;;;;;;19.30;10.50;;;-3.30;99.90;;;;;;5033305;28;20022;-77
2020/12/27 03:44:06;;;;;;;20.83;10.48;;;-3.30;99.90;;;;;;5037317;28;20055;-77
2020/12/27 03:46:32;;;;;;;18.77;10.25;;;-3.00;99.90;;;;;;5037132;28;20079;-77
2020/12/27 03:48:58;;;;;;;17.67;10.45;;;-3.20;99.90;;;;;;5034923;28;20025;-76
2020/12/27 03:51:24;;;;;;;20.35;10.52;;;-3.20;99.90;;;;;;5033120;28;20121;-76
2020/12/27 03:53:49;;;;;;;20.92;11.38;;;-3.20;99.90;;;;;;5034057;28;20490;-78
2020/12/27 03:56:15;;;;;;;17.63;10.18;;;-3.20;99.90;;;;;;5037432;28;20026;-77
2020/12/27 03:58:41;;;;;;;19.08;9.63;;;-3.20;99.90;;;;;;5036099;28;20029;-78
2020/12/27 04:01:07;;;;;;;20.55;9.93;;;-3.20;99.90;;;;;;5033348;28;20405;-77
2020/12/27 04:03:32;;;;;;;23.35;10.82;;;-3.10;99.90;;;;;;5033913;28;20112;-76
2020/12/27 04:05:58;;;;;;;18.50;9.95;;;-3.10;99.90;;;;;;5034483;28;20065;-77
2020/12/27 04:08:24;;;;;;;20.70;10.68;;;-3.20;99.90;;;;;;5032130;28;20021;-77
2020/12/27 04:10:49;;;;;;;16.65;9.23;;;-3.20;99.90;;;;;;5015322;28;20025;-76
2020/12/27 04:13:15;;;;;;;15.98;9.40;;;-3.30;99.90;;;;;;5018557;28;20030;-76
2020/12/27 04:15:41;;;;;;;19.48;9.55;;;-3.20;99.90;;;;;;5033726;28;20037;-77
2020/12/27 04:18:07;;;;;;;20.58;9.45;;;-3.20;99.90;;;;;;5025666;28;20026;-77
2020/12/27 04:20:33;;;;;;;22.85;9.82;;;-3.20;99.90;;;;;;5025766;28;20026;-76
2020/12/27 04:22:58;;;;;;;22.92;10.15;;;-3.20;99.90;;;;;;5024427;28;20105;-77
2020/12/27 04:25:24;;;;;;;13.15;8.48;;;-3.10;99.90;;;;;;5014761;28;20022;-75
2020/12/27 04:27:50;;;;;;;15.88;9.35;;;-3.20;99.90;;;;;;5015980;28;20022;-77
2020/12/27 04:30:16;;;;;;;16.27;9.65;;;-3.20;99.90;;;;;;5015252;28;20056;-77
2020/12/27 04:32:41;;;;;;;17.25;9.13;;;-3.10;99.90;;;;;;5015749;28;20030;-77
2020/12/27 04:35:07;;;;;;;17.48;10.30;;;-3.10;99.90;;;;;;5032918;23;20041;-68
2020/12/27 04:37:33;;;;;;;17.75;8.77;;;-3.10;99.90;;;;;;5042873;28;20052;-68
2020/12/27 04:39:58;;;;;;;18.75;9.60;;;-3.20;99.90;;;;;;5051391;28;20143;-68
2020/12/27 04:42:25;;;;;;;16.98;9.40;;;-3.20;99.90;;;;;;5050579;28;20025;-68
2020/12/27 04:44:54;;;;;;;18.83;9.90;;;-3.20;99.90;;;;;;5044911;28;20041;-68
2020/12/27 04:47:25;;;;;;;15.82;9.25;;;-3.20;99.90;;;;;;5031187;28;20021;-68
2020/12/27 04:49:52;;;;;;;15.00;9.07;;;-3.30;99.90;;;;;;5031105;28;20063;-68
2020/12/27 04:52:20;;;;;;;24.48;9.15;;;-3.30;99.90;;;;;;5031333;28;20101;-68
2020/12/27 04:54:50;;;;;;;18.30;9.38;;;-3.40;99.90;;;;;;5029791;28;20022;-69
2020/12/27 04:57:18;;;;;;;18.73;9.55;;;-3.40;99.90;;;;;;5031226;28;20025;-69
2020/12/27 04:59:46;;;;;;;17.98;9.82;;;-3.40;99.90;;;;;;5031466;28;20025;-69
2020/12/27 05:02:13;;;;;;;18.38;9.32;;;-3.40;99.90;;;;;;5031121;28;20097;-69
2020/12/27 05:04:39;;;;;;;16.67;9.30;;;-3.40;99.90;;;;;;5030575;28;20029;-70
2020/12/27 05:07:05;;;;;;;17.80;9.75;;;-3.50;99.90;;;;;;5031115;28;20079;-69
2020/12/27 05:09:31;;;;;;;17.10;9.38;;;-3.50;99.90;;;;;;5031401;28;20391;-69
2020/12/27 05:11:57;;;;;;;18.40;9.32;;;-3.50;99.90;;;;;;5031172;28;20108;-69
2020/12/27 05:14:24;;;;;;;17.20;9.13;;;-3.60;99.90;;;;;;5030400;28;20025;-69
2020/12/27 05:16:59;;;;;;;20.38;9.95;;;-3.60;99.90;;;;;;5030713;28;20052;-69
2020/12/27 05:19:27;;;;;;;20.98;10.73;;;-3.60;99.90;;;;;;5031063;28;20022;-69
2020/12/27 05:22:06;;;;;;;20.88;9.50;;;-3.60;99.90;;;;;;5029803;28;20086;-70
2020/12/27 05:24:33;;;;;;;23.60;10.90;;;-3.60;99.90;;;;;;5030347;28;20487;-69
2020/12/27 05:26:59;;;;;;;18.10;9.88;;;-3.60;99.90;;;;;;5030969;28;20152;-69
2020/12/27 05:29:36;;;;;;;18.50;10.18;;;-3.60;99.90;;;;;;5031003;28;20044;-69
2020/12/27 05:32:03;;;;;;;21.25;9.95;;;-3.60;99.90;;;;;;5030735;28;20025;-69
2020/12/27 05:34:30;;;;;;;22.25;10.07;;;-3.60;99.90;;;;;;5029148;28;20021;-69
2020/12/27 05:37:01;;;;;;;22.85;11.05;;;-3.60;99.90;;;;;;5033057;28;20041;-69
2020/12/27 05:39:28;;;;;;;19.60;10.37;;;-3.60;99.90;;;;;;5034481;28;20049;-69
2020/12/27 05:42:00;;;;;;;18.08;10.52;;;-3.60;99.90;;;;;;5034190;28;20036;-70
2020/12/27 05:44:26;;;;;;;24.05;10.63;;;-3.60;99.90;;;;;;5033649;28;20018;-70
2020/12/27 05:46:54;;;;;;;18.05;10.43;;;-3.70;99.90;;;;;;5034307;28;20021;-69
2020/12/27 05:49:20;;;;;;;17.90;9.57;;;-3.70;99.90;;;;;;5034171;28;20029;-69
2020/12/27 05:52:12;;;;;;;20.65;11.35;;;-3.70;99.90;;;;;;5032892;28;20029;-70
2020/12/27 05:54:45;;;;;;;18.05;9.95;;;-3.60;99.90;;;;;;5033476;28;20148;-69
2020/12/27 05:57:16;;;;;;;22.75;10.60;;;-3.60;99.90;;;;;;5034238;28;20029;-69
2020/12/27 05:59:44;;;;;;;21.20;10.57;;;-3.60;99.90;;;;;;5032906;28;20017;-70
2020/12/27 06:02:34;;;;;;;22.70;11.32;;;-3.60;99.90;;;;;;5034299;28;20080;-70
2020/12/27 06:05:16;;;;;;;18.95;10.13;;;-3.60;99.90;;;;;;5031982;28;20021;-71
2020/12/27 06:07:45;;;;;;;18.83;10.00;;;-3.60;99.90;;;;;;5034234;28;20025;-69
2020/12/27 06:10:12;;;;;;;22.50;10.23;;;-3.60;99.90;;;;;;5033877;28;20049;-69
2020/12/27 06:12:44;;;;;;;16.08;10.43;;;-3.50;99.90;;;;;;5033437;28;20021;-70
2020/12/27 06:15:31;;;;;;;20.13;11.48;;;-3.60;99.90;;;;;;5033256;28;20034;-69
2020/12/27 06:18:10;;;;;;;18.33;9.70;;;-3.50;99.90;;;;;;5033687;28;20025;-69
2020/12/27 06:20:38;;;;;;;19.73;10.15;;;-3.50;99.90;;;;;;5033545;28;20022;-69
2020/12/27 06:23:05;;;;;;;21.05;10.18;;;-3.60;99.90;;;;;;5031823;28;20049;-70
2020/12/27 06:25:31;;;;;;;17.88;10.52;;;-3.50;99.90;;;;;;5033362;28;20041;-69
2020/12/27 06:27:58;;;;;;;16.88;9.98;;;-3.50;99.90;;;;;;5033844;28;20102;-70
2020/12/27 06:30:36;;;;;;;18.13;10.25;;;-3.40;99.90;;;;;;5033790;28;20406;-69
2020/12/27 06:33:14;;;;;;;19.33;10.55;;;-3.50;99.90;;;;;;5033165;28;20053;-69
2020/12/27 06:35:44;;;;;;;17.65;10.25;;;-3.50;99.90;;;;;;5033172;28;20041;-69
2020/12/27 06:38:31;;;;;;;17.90;10.07;;;-3.50;99.90;;;;;;5033494;28;20025;-70
2020/12/27 06:41:07;;;;;;;19.65;9.93;;;-3.40;99.90;;;;;;5033566;28;20056;-70
2020/12/27 06:43:45;;;;;;;22.20;10.02;;;-3.50;99.90;;;;;;5032826;28;20021;-69
2020/12/27 06:46:21;;;;;;;23.73;11.05;;;-3.50;99.90;;;;;;5033296;28;20036;-69
2020/12/27 06:48:47;;;;;;;15.43;10.27;;;-3.50;99.90;;;;;;5033298;28;20033;-69
2020/12/27 06:51:37;;;;;;;18.75;11.07;;;-3.40;99.90;;;;;;5032985;28;20383;-69
2020/12/27 06:54:03;;;;;;;18.05;10.88;;;-3.40;99.90;;;;;;5032538;28;20030;-69
2020/12/27 06:56:45;;;;;;;21.98;11.85;;;-3.40;99.90;;;;;;5033152;28;20488;-69
2020/12/27 06:59:11;;;;;;;22.15;11.27;;;-3.40;99.90;;;;;;5032986;28;20032;-69
2020/12/27 07:01:37;;;;;;;22.73;12.98;;;-3.50;99.90;;;;;;5033200;28;20018;-69
2020/12/27 07:04:14;;;;;;;20.67;12.38;;;-3.50;99.90;;;;;;5023374;28;20637;-71
2020/12/27 07:06:42;;;;;;;21.92;12.60;;;-3.40;99.90;;;;;;5022570;28;20021;-70
2020/12/27 07:09:08;;;;;;;19.85;12.32;;;-3.40;99.90;;;;;;5031682;28;20029;-71
2020/12/27 07:11:34;;;;;;;20.30;11.90;;;-3.30;99.90;;;;;;5032557;28;20390;-70
2020/12/27 07:14:00;;;;;;;19.27;10.68;;;-3.20;99.90;;;;;;5032063;28;20025;-70
2020/12/27 07:16:43;;;;;;;17.75;10.82;;;-3.10;99.90;;;;;;5032204;28;20491;-70
2020/12/27 07:19:14;;;;;;;18.75;10.45;;;-3.10;99.90;;;;;;5032951;28;20099;-70
2020/12/27 07:21:40;;;;;;;18.80;11.03;;;-3.20;99.90;;;;;;5029769;28;20025;-70
2020/12/27 07:24:05;;;;;;;20.85;10.98;;;-3.10;99.90;;;;;;5011072;28;20022;-70
2020/12/27 07:26:37;;;;;;;27.60;11.15;;;-3.10;99.90;;;;;;5012918;28;20016;-70
2020/12/27 07:29:06;;;;;;;;;;;-3.20;99.90;;;;;;5023171;28;20036;-71
2020/12/27 07:31:36;;;;;;;20.70;11.40;;;-3.00;99.90;;;;;;5018489;28;19960;-74
2020/12/27 07:34:04;;;;;;;22.65;12.15;;;-3.10;99.90;;;;;;5031372;28;20148;-74
2020/12/27 07:36:31;;;;;;;24.00;14.02;;;-3.10;99.90;;;;;;5026714;28;20510;-74
2020/12/27 07:39:07;;;;;;;24.33;12.38;;;-2.90;99.90;;;;;;5032512;28;20067;-75
2020/12/27 07:41:36;;;;;;;22.35;11.93;;;-2.90;99.90;;;;;;5028685;28;20093;-75
2020/12/27 07:44:03;;;;;;;20.63;11.02;;;-2.90;99.90;;;;;;5011808;28;20475;-73
2020/12/27 07:46:29;;;;;;;18.25;11.50;;;-2.90;99.90;;;;;;5018326;28;20017;-74
2020/12/27 07:48:55;;;;;;;18.73;10.75;;;-2.80;99.90;;;;;;5024017;28;20402;-76
2020/12/27 07:51:24;;;;;;;21.13;11.35;;;-2.80;99.90;;;;;;5025373;28;20508;-75
2020/12/27 07:53:55;;;;;;;17.52;10.65;;;-2.70;99.90;;;;;;5033253;28;20055;-75
2020/12/27 07:56:22;;;;;;;19.58;11.25;;;-2.60;99.90;;;;;;5036766;28;20021;-75
2020/12/27 07:58:59;;;;;;;17.05;10.15;;;-2.50;99.90;;;;;;5039028;28;20022;-76
2020/12/27 08:01:35;;;;;;;19.80;11.32;;;-2.40;99.90;;;;;;5032976;28;20113;-75
2020/12/27 08:04:06;;;;;;;16.52;10.80;;;-2.30;99.90;;;;;;5030841;28;20037;-74
2020/12/27 08:06:41;;;;;;;18.50;10.43;;;-2.40;99.90;;;;;;5034548;28;20293;-74
2020/12/27 08:09:09;;;;;;;19.75;11.68;;;-2.30;99.90;;;;;;5031933;28;20064;-72
2020/12/27 08:11:40;;;;;;;19.60;11.25;;;-2.20;99.90;;;;;;5037623;28;20017;-72
2020/12/27 08:14:07;;;;;;;23.48;11.48;;;-2.10;99.90;;;;;;5030766;28;20029;-72
2020/12/27 08:16:36;;;;;;;19.25;11.27;;;-2.00;99.90;;;;;;5030718;28;20111;-72
2020/12/27 08:19:01;;;;;;;20.17;11.45;;;-1.90;99.90;;;;;;5038279;28;20030;-72
2020/12/27 08:21:27;;;;;;;24.35;14.45;;;-1.90;99.90;;;;;;5033401;28;20056;-72
2020/12/27 08:24:14;;;;;;;17.67;10.60;;;-1.70;99.90;;;;;;5035661;28;20018;-72
2020/12/27 08:26:46;;;;;;;22.73;11.85;;;-1.60;99.90;;;;;;5029018;28;20018;-69
2020/12/27 08:29:18;;;;;;;19.13;12.85;;;-1.50;99.90;;;;;;5031162;28;20056;-75
2020/12/27 08:31:47;;;;;;;25.10;11.50;;;-1.40;99.90;;;;;;5036424;28;20022;-74
2020/12/27 08:34:14;;;;;;;26.60;12.13;;;-1.30;99.90;;;;;;5034610;28;20034;-75
2020/12/27 08:36:45;;;;;;;27.00;14.27;;;-1.20;99.90;;;;;;5030717;28;20054;-71
2020/12/27 08:39:43;;;;;;;20.38;11.82;;;-1.10;99.90;;;;;;5018310;28;20483;-70
2020/12/27 08:42:39;;;;;;;19.00;11.48;;;-1.00;99.90;;;;;;5011441;28;20085;-70
2020/12/27 08:45:14;;;;;;;22.02;12.23;;;-1.00;99.90;;;;;;5011894;28;20026;-70
2020/12/27 08:47:46;;;;;;;20.90;11.55;;;-1.00;99.90;;;;;;5011379;28;20035;-69
2020/12/27 08:50:24;;;;;;;22.38;11.55;;;-0.90;99.90;;;;;;5026223;28;20030;-69
2020/12/27 08:52:58;;;;;;;18.63;11.10;;;-0.90;99.90;;;;;;5019775;28;20034;-68
2020/12/27 08:55:27;;;;;;;19.35;11.15;;;-0.80;99.90;;;;;;5012959;28;20487;-68
2020/12/27 08:57:57;;;;;;;17.55;10.85;;;-0.60;99.90;;;;;;5017141;28;20034;-68
2020/12/27 09:00:31;;;;;;;21.92;11.70;;;-0.50;99.90;;;;;;5036320;28;20029;-69
2020/12/27 09:02:58;;;;;;;17.10;9.95;;;-0.60;99.90;;;;;;5036494;28;20080;-69
2020/12/27 09:05:29;;;;;;;14.90;10.32;;;-0.50;99.90;;;;;;5037271;28;20025;-68
2020/12/27 09:07:55;;;;;;;16.23;11.48;;;-0.50;99.90;;;;;;5028187;28;20026;-69
2020/12/27 09:10:26;;;;;;;14.70;9.88;;;-0.30;99.90;;;;;;5017479;28;20026;-69
2020/12/27 09:13:05;;;;;;;15.00;9.10;;;-0.20;99.90;;;;;;5018552;28;20440;-69
2020/12/27 09:15:31;;;;;;;11.45;7.72;;;-0.20;99.90;;;;;;5021787;28;20038;-70
2020/12/27 09:18:07;;;;;;;13.15;7.60;;;-0.30;99.90;;;;;;5022667;28;20049;-69
2020/12/27 09:20:38;;;;;;;10.18;7.43;;;-0.10;99.90;;;;;;5024483;28;20039;-70
2020/12/27 09:23:20;;;;;;;11.82;7.75;;;-0.10;99.90;;;;;;5038177;28;20067;-69
2020/12/27 09:25:47;;;;;;;12.27;7.63;;;0.00;99.90;;;;;;5037662;28;20057;-69
2020/12/27 09:28:21;;;;;;;13.45;7.63;;;0.20;99.90;;;;;;5035464;28;20120;-69
2020/12/27 09:31:02;;;;;;;12.88;8.55;;;0.30;99.90;;;;;;5036344;28;20357;-69
2020/12/27 09:33:30;;;;;;;15.45;8.23;;;0.50;99.90;;;;;;5034336;28;20033;-69
2020/12/27 09:36:00;;;;;;;12.05;7.97;;;0.40;99.90;;;;;;5034469;28;20550;-70
2020/12/27 09:38:28;;;;;;;13.80;9.68;;;0.50;99.90;;;;;;5035813;28;20648;-68
2020/12/27 09:41:17;;;;;;;11.80;8.23;;;0.60;99.90;;;;;;5036129;28;20075;-70
2020/12/27 09:44:02;;;;;;;15.13;7.97;;;0.70;99.90;;;;;;5035107;28;20096;-69
2020/12/27 09:46:47;;;;;;;11.88;7.72;;;0.80;99.90;;;;;;5034637;28;20111;-68
2020/12/27 09:49:19;;;;;;;13.18;8.75;;;0.80;99.90;;;;;;5034875;28;20022;-69
2020/12/27 09:51:45;;;;;;;10.35;7.70;;;1.00;99.90;;;;;;5035462;28;20034;-65
2020/12/27 09:54:11;;;;;;;11.98;8.40;;;1.00;99.90;;;;;;5035209;28;20030;-67
2020/12/27 09:56:43;;;;;;;16.00;11.25;;;1.00;99.90;;;;;;5033514;28;20029;-71
2020/12/27 09:59:10;;;;;;;14.63;10.43;;;0.90;99.90;;;;;;5035016;28;20022;-70
2020/12/27 10:01:36;;;;;;;16.65;9.85;;;0.90;99.90;;;;;;5036250;28;20025;-70
2020/12/27 10:04:02;;;;;;;12.80;9.35;;;1.10;99.90;;;;;;5034144;28;20155;-70
2020/12/27 10:06:28;;;;;;;18.40;9.60;;;1.20;99.90;;;;;;5035208;28;20033;-70
2020/12/27 10:08:54;;;;;;;12.63;9.15;;;1.20;99.90;;;;;;5036384;28;20030;-70
2020/12/27 10:11:19;;;;;;;15.05;9.75;;;1.20;99.90;;;;;;5037371;28;20032;-71
2020/12/27 10:13:45;;;;;;;17.88;9.65;;;1.30;99.90;;;;;;5036249;28;20032;-71
2020/12/27 10:16:11;;;;;;;14.32;10.07;;;1.30;99.90;;;;;;5037623;28;20033;-70
2020/12/27 10:18:36;;;;;;;13.88;9.50;;;1.40;99.90;;;;;;5037143;28;20033;-71
2020/12/27 10:21:02;;;;;;;15.15;10.57;;;1.40;99.90;;;;;;5034030;28;20041;-69
2020/12/27 10:23:28;;;;;;;16.58;10.27;;;1.10;99.90;;;;;;5031694;28;20028;-69
2020/12/27 10:25:53;;;;;;;15.57;10.70;;;1.10;99.90;;;;;;5032205;28;20037;-70
2020/12/27 10:28:19;;;;;;;18.85;10.82;;;1.10;99.90;;;;;;5032715;28;20079;-70
2020/12/27 10:30:44;;;;;;;15.38;10.23;;;1.20;99.90;;;;;;5033473;28;20034;-70
2020/12/27 10:33:12;;;;;;;13.00;9.20;;;1.30;99.90;;;;;;5032845;28;20040;-69
2020/12/27 10:35:38;;;;;;;20.95;9.68;;;1.50;99.90;;;;;;5033295;28;20399;-71
2020/12/27 10:38:03;;;;;;;15.18;10.50;;;1.70;99.90;;;;;;5033234;28;20029;-70
2020/12/27 10:40:29;;;;;;;15.25;9.27;;;1.80;99.90;;;;;;5033260;28;20036;-69
2020/12/27 10:42:55;;;;;;;16.05;9.35;;;1.80;99.90;;;;;;5032380;28;20368;-70
2020/12/27 10:45:20;;;;;;;13.38;8.80;;;2.10;99.90;;;;;;5032876;28;20096;-69
2020/12/27 10:47:46;;;;;;;15.27;7.88;;;2.30;99.90;;;;;;5033289;28;20021;-70
2020/12/27 10:50:11;;;;;;;10.57;8.25;;;2.40;99.90;;;;;;5032950;28;20595;-69
2020/12/27 10:52:37;;;;;;;11.40;8.20;;;2.40;99.90;;;;;;5032175;28;20105;-70
2020/12/27 10:55:03;;;;;;;13.80;7.75;;;2.40;99.90;;;;;;5032760;28;20034;-69
2020/12/27 10:57:28;;;;;;;12.60;8.63;;;2.40;99.90;;;;;;5032727;28;20025;-69
2020/12/27 10:59:54;;;;;;;11.82;9.00;;;2.20;99.90;;;;;;5032548;28;20036;-70
2020/12/27 11:02:20;;;;;;;11.50;9.60;;;2.40;99.90;;;;;;5033094;28;20033;-70
2020/12/27 11:04:46;;;;;;;13.88;8.90;;;2.40;99.90;;;;;;5029800;28;20038;-70
2020/12/27 11:07:12;;;;;;;13.32;8.60;;;2.70;99.90;;;;;;5032859;28;20067;-70
2020/12/27 11:09:37;;;;;;;12.85;9.45;;;2.90;99.90;;;;;;5032667;28;20114;-70
2020/12/27 11:12:03;;;;;;;12.75;7.82;;;3.40;99.90;;;;;;5032639;28;20121;-70
2020/12/27 11:14:28;;;;;;;10.43;7.15;;;3.40;99.90;;;;;;5031745;28;20139;-70
2020/12/27 11:16:56;;;;;;;10.07;6.80;;;3.30;99.90;;;;;;5032277;28;20104;-69
2020/12/27 11:19:21;;;;;;;11.32;7.82;;;3.30;99.90;;;;;;5031960;28;20048;-69
2020/12/27 11:21:48;;;;;;;10.70;7.10;;;3.30;99.90;;;;;;5032543;28;20460;-69
2020/12/27 11:24:15;;;;;;;12.27;8.25;;;3.00;99.90;;;;;;5032019;28;20028;-70
2020/12/27 11:26:40;;;;;;;12.23;8.07;;;2.70;99.90;;;;;;5032687;28;20388;-67
2020/12/27 11:29:06;;;;;;;11.45;8.30;;;2.80;99.90;;;;;;5032556;28;20029;-70
2020/12/27 11:31:32;;;;;;;13.32;8.23;;;2.80;99.90;;;;;;5032674;28;20098;-69
2020/12/27 11:33:57;;;;;;;13.35;9.20;;;2.90;99.90;;;;;;5030101;28;20022;-70
2020/12/27 11:36:23;;;;;;;15.45;9.70;;;2.90;99.90;;;;;;5031450;28;20132;-70
2020/12/27 11:38:49;;;;;;;11.45;8.10;;;2.90;99.90;;;;;;5032336;28;20439;-69
2020/12/27 11:41:15;;;;;;;17.92;7.78;;;2.80;99.90;;;;;;5031211;28;20040;-69
2020/12/27 11:43:41;;;;;;;10.13;7.80;;;2.90;99.90;;;;;;5031603;28;20075;-70
2020/12/27 11:46:08;;;;;;;11.52;7.97;;;2.90;99.90;;;;;;5032051;28;20037;-69
2020/12/27 11:48:33;;;;;;;9.60;6.60;;;3.00;99.90;;;;;;5031705;28;20089;-71
2020/12/27 11:50:59;;;;;;;11.80;7.28;;;3.00;99.90;;;;;;5030484;28;20196;-70
2020/12/27 11:53:24;;;;;;;11.23;7.20;;;3.10;99.90;;;;;;5031174;28;20439;-70
2020/12/27 11:55:50;;;;;;;10.68;7.90;;;3.20;99.90;;;;;;5031688;28;20022;-70
2020/12/27 11:58:16;;;;;;;13.05;8.90;;;3.20;99.90;;;;;;5031612;28;20025;-70
2020/12/27 12:00:42;;;;;;;9.18;6.78;;;3.30;99.90;;;;;;5031682;28;20059;-70
2020/12/27 12:03:07;;;;;;;9.10;6.65;;;3.60;99.90;;;;;;5029552;28;20114;-70
2020/12/27 12:05:33;;;;;;;11.00;5.97;;;3.70;99.90;;;;;;5031414;28;20049;-70
2020/12/27 12:07:59;;;;;;;10.52;5.95;;;3.80;99.90;;;;;;5031767;28;20030;-70
2020/12/27 12:10:24;;;;;;;7.47;6.22;;;3.80;99.90;;;;;;5031494;28;20052;-71
2020/12/27 12:12:50;;;;;;;8.10;6.13;;;3.80;99.90;;;;;;5030928;28;20033;-69
2020/12/27 12:15:16;;;;;;;10.00;6.65;;;3.70;99.90;;;;;;5031444;28;20029;-70
2020/12/27 12:17:42;;;;;;;8.00;6.60;;;3.70;99.90;;;;;;5031253;28;20080;-70
2020/12/27 12:20:42;;;;;;;9.05;6.80;;;3.50;99.90;;;;;;5029632;28;20030;-71
2020/12/27 12:22:53;;;;;;;9.10;7.05;;;3.40;99.90;;;;;;5030671;28;20520;-69
2020/12/27 12:25:19;;;;;;;9.13;6.50;;;3.50;99.90;;;;;;5031041;28;20104;-69
2020/12/27 12:27:44;;;;;;;9.57;6.65;;;3.60;99.90;;;;;;5031295;28;20021;-68
2020/12/27 12:30:10;;;;;;;11.25;6.20;;;3.60;99.90;;;;;;5031162;28;20049;-68
2020/12/27 12:32:36;;;;;;;12.95;7.07;;;3.60;99.90;;;;;;5031159;28;20480;-75
2020/12/27 12:35:01;;;;;;;9.75;7.07;;;3.60;99.90;;;;;;5030394;28;20546;-70
2020/12/27 12:37:27;;;;;;;11.60;7.68;;;3.70;99.90;;;;;;5031642;28;20111;-74
2020/12/27 12:39:52;;;;;;;11.40;7.90;;;3.70;99.90;;;;;;5031632;28;20032;-76
2020/12/27 12:42:18;;;;;;;12.35;7.03;;;3.60;99.90;;;;;;5030755;28;20024;-70